Time,TemperatureF,DewpointF,PressureIn,WindDirection,WindDirectionDegrees,WindSpeedMPH,WindSpeedGustMPH,Humidity,HourlyPrecipIn,Conditions,Clouds,dailyrainin,SoftwareType,DateUTC
2013-04-23 00:04:00,35.0,21.0,30.32,SSE,157,1.0,1.0,58,0.00,,,0.00,TxWx,2013-04-23 04:04:00,
2013-04-23 00:09:00,34.0,20.0,30.32,NE,45,2.0,2.0,58,0.00,,,0.00,TxWx,2013-04-23 04:09:00,
2013-04-23 00:14:00,34.0,20.0,30.32,North,0,1.0,2.0,59,0.00,,,0.00,TxWx,2013-04-23 04:14:00,
2013-04-23 00:19:00,34.0,20.0,30.32,SSE,157,1.0,1.0,60,0.00,,,0.00,TxWx,2013-04-23 04:19:00,
2013-04-23 00:25:00,34.0,21.0,30.32,SE,135,2.0,3.0,60,0.00,,,0.00,TxWx,2013-04-23 04:25:00,
2013-04-23 00:30:00,34.0,21.0,30.32,SE,135,2.0,3.0,61,0.00,,,0.00,TxWx,2013-04-23 04:30:00,
2013-04-23 00:35:00,33.0,20.0,30.32,SE,135,3.0,4.0,61,0.00,,,0.00,TxWx,2013-04-23 04:35:00,
2013-04-23 00:40:00,33.0,20.0,30.32,SE,135,1.0,2.0,62,0.00,,,0.00,TxWx,2013-04-23 04:40:00,
2013-04-23 00:45:00,33.0,21.0,30.31,ESE,112,3.0,5.0,63,0.00,,,0.00,TxWx,2013-04-23 04:45:00,
2013-04-23 00:50:00,33.0,21.0,30.31,SE,135,3.0,3.0,63,0.00,,,0.00,TxWx,2013-04-23 04:50:00,
2013-04-23 00:55:00,33.0,20.0,30.31,SE,135,3.0,3.0,62,0.00,,,0.00,TxWx,2013-04-23 04:55:00,
2013-04-23 01:00:00,33.0,20.0,30.31,SSE,157,1.0,2.0,61,0.00,,,0.00,TxWx,2013-04-23 05:00:00,
2013-04-23 01:05:00,33.0,20.0,30.31,ENE,67,2.0,2.0,61,0.00,,,0.00,TxWx,2013-04-23 05:05:00,
2013-04-23 01:10:00,33.0,20.0,30.31,NNE,22,3.0,3.0,61,0.00,,,0.00,TxWx,2013-04-23 05:10:00,
2013-04-23 01:16:00,33.0,20.0,30.31,SSW,202,2.0,4.0,61,0.00,,,0.00,TxWx,2013-04-23 05:16:00,
2013-04-23 01:21:00,33.0,20.0,30.30,North,0,3.0,3.0,61,0.00,,,0.00,TxWx,2013-04-23 05:21:00,
2013-04-23 01:26:00,33.0,20.0,30.30,SSE,157,2.0,3.0,61,0.00,,,0.00,TxWx,2013-04-23 05:26:00,
2013-04-23 01:31:00,32.0,19.0,30.30,SE,135,2.0,3.0,62,0.00,,,0.00,TxWx,2013-04-23 05:31:00,
2013-04-23 01:36:00,32.0,19.0,30.30,East,90,2.0,3.0,62,0.00,,,0.00,TxWx,2013-04-23 05:36:00,
2013-04-23 01:41:00,31.0,19.0,30.30,ESE,112,1.0,2.0,63,0.00,,,0.00,TxWx,2013-04-23 05:41:00,
2013-04-23 01:46:00,31.0,19.0,30.31,ENE,67,1.0,1.0,64,0.00,,,0.00,TxWx,2013-04-23 05:46:00,
2013-04-23 01:51:00,30.0,18.0,30.31,East,90,2.0,3.0,65,0.00,,,0.00,TxWx,2013-04-23 05:51:00,
2013-04-23 01:56:00,30.0,19.0,30.31,SW,225,1.0,1.0,66,0.00,,,0.00,TxWx,2013-04-23 05:56:00,
2013-04-23 02:01:00,30.0,19.0,30.30,North,0,2.0,3.0,66,0.00,,,0.00,TxWx,2013-04-23 06:01:00,
2013-04-23 02:06:00,29.0,19.0,30.30,NE,45,1.0,2.0,68,0.00,,,0.00,TxWx,2013-04-23 06:06:00,
2013-04-23 02:12:00,29.0,19.0,30.30,ESE,112,1.0,1.0,69,0.00,,,0.00,TxWx,2013-04-23 06:12:00,
2013-04-23 02:17:00,29.0,19.0,30.30,SSW,202,1.0,1.0,69,0.00,,,0.00,TxWx,2013-04-23 06:17:00,
2013-04-23 02:22:00,28.0,18.0,30.30,SSE,157,1.0,1.0,70,0.00,,,0.00,TxWx,2013-04-23 06:22:00,
2013-04-23 02:27:00,28.0,19.0,30.29,SSE,157,1.0,1.0,71,0.00,,,0.00,TxWx,2013-04-23 06:27:00,
2013-04-23 02:32:00,28.0,19.0,30.29,SSE,157,0.0,0.0,71,0.00,,,0.00,TxWx,2013-04-23 06:32:00,
2013-04-23 02:37:00,28.0,19.0,30.30,SSW,202,1.0,1.0,71,0.00,,,0.00,TxWx,2013-04-23 06:37:00,
2013-04-23 02:42:00,28.0,19.0,30.29,NE,45,2.0,3.0,72,0.00,,,0.00,TxWx,2013-04-23 06:42:00,
2013-04-23 02:47:00,28.0,20.0,30.29,SSE,157,1.0,1.0,74,0.00,,,0.00,TxWx,2013-04-23 06:47:00,
2013-04-23 02:52:00,28.0,20.0,30.29,ESE,112,3.0,3.0,75,0.00,,,0.00,TxWx,2013-04-23 06:52:00,
2013-04-23 02:57:00,28.0,20.0,30.29,South,180,0.0,1.0,75,0.00,,,0.00,TxWx,2013-04-23 06:57:00,
2013-04-23 03:02:00,28.0,20.0,30.29,SE,135,1.0,2.0,75,0.00,,,0.00,TxWx,2013-04-23 07:02:00,
2013-04-23 03:08:00,28.0,20.0,30.29,SSE,157,1.0,2.0,75,0.00,,,0.00,TxWx,2013-04-23 07:08:00,
2013-04-23 03:13:00,27.0,20.0,30.29,ESE,112,1.0,2.0,77,0.00,,,0.00,TxWx,2013-04-23 07:13:00,
2013-04-23 03:18:00,27.0,20.0,30.29,ESE,112,1.0,3.0,77,0.00,,,0.00,TxWx,2013-04-23 07:18:00,
2013-04-23 03:23:00,27.0,20.0,30.29,South,180,0.0,1.0,77,0.00,,,0.00,TxWx,2013-04-23 07:23:00,
2013-04-23 03:28:00,27.0,20.0,30.29,West,270,1.0,1.0,77,0.00,,,0.00,TxWx,2013-04-23 07:28:00,
2013-04-23 03:33:00,27.0,20.0,30.29,North,0,1.0,2.0,78,0.00,,,0.00,TxWx,2013-04-23 07:33:00,
2013-04-23 03:38:00,27.0,20.0,30.29,NNE,22,3.0,3.0,78,0.00,,,0.00,TxWx,2013-04-23 07:38:00,
2013-04-23 03:43:00,27.0,20.0,30.29,NNE,22,3.0,3.0,78,0.00,,,0.00,TxWx,2013-04-23 07:43:00,
2013-04-23 03:48:00,27.0,20.0,30.29,ESE,112,1.0,1.0,79,0.00,,,0.00,TxWx,2013-04-23 07:48:00,
2013-04-23 03:53:00,27.0,20.0,30.28,SSW,202,0.0,0.0,79,0.00,,,0.00,TxWx,2013-04-23 07:53:00,
2013-04-23 03:58:00,27.0,20.0,30.28,East,90,1.0,1.0,79,0.00,,,0.00,TxWx,2013-04-23 07:58:00,
2013-04-23 04:04:00,27.0,20.0,30.28,SSE,157,1.0,2.0,79,0.00,,,0.00,TxWx,2013-04-23 08:04:00,
2013-04-23 04:09:00,27.0,21.0,30.28,South,180,0.0,1.0,80,0.00,,,0.00,TxWx,2013-04-23 08:09:00,
2013-04-23 04:14:00,26.0,19.0,30.28,SSE,157,1.0,1.0,79,0.00,,,0.00,TxWx,2013-04-23 08:14:00,
2013-04-23 04:19:00,26.0,19.0,30.28,South,180,0.0,0.0,79,0.00,,,0.00,TxWx,2013-04-23 08:19:00,
2013-04-23 04:24:00,26.0,20.0,30.27,SSE,157,0.0,0.0,80,0.00,,,0.00,TxWx,2013-04-23 08:24:00,
2013-04-23 04:29:00,26.0,20.0,30.27,SSW,202,0.0,1.0,80,0.00,,,0.00,TxWx,2013-04-23 08:29:00,
2013-04-23 04:34:00,26.0,20.0,30.27,SW,225,0.0,1.0,80,0.00,,,0.00,TxWx,2013-04-23 08:34:00,
2013-04-23 04:39:00,26.0,20.0,30.27,SSE,157,1.0,1.0,80,0.00,,,0.00,TxWx,2013-04-23 08:39:00,
2013-04-23 04:44:00,26.0,20.0,30.27,SSE,157,0.0,1.0,80,0.00,,,0.00,TxWx,2013-04-23 08:44:00,
2013-04-23 04:49:00,25.0,19.0,30.27,South,180,1.0,1.0,80,0.00,,,0.00,TxWx,2013-04-23 08:49:00,
2013-04-23 04:54:00,26.0,20.0,30.27,SSE,157,1.0,1.0,81,0.00,,,0.00,TxWx,2013-04-23 08:54:00,
2013-04-23 05:00:00,26.0,20.0,30.27,SE,135,1.0,2.0,82,0.00,,,0.00,TxWx,2013-04-23 09:00:00,
2013-04-23 05:05:00,26.0,20.0,30.27,South,180,0.0,0.0,82,0.00,,,0.00,TxWx,2013-04-23 09:05:00,
2013-04-23 05:10:00,26.0,20.0,30.27,South,180,0.0,0.0,82,0.00,,,0.00,TxWx,2013-04-23 09:10:00,
2013-04-23 05:15:00,25.0,19.0,30.26,South,180,0.0,1.0,82,0.00,,,0.00,TxWx,2013-04-23 09:15:00,
2013-04-23 05:20:00,25.0,19.0,30.26,SSE,157,1.0,1.0,82,0.00,,,0.00,TxWx,2013-04-23 09:20:00,
2013-04-23 05:25:00,25.0,19.0,30.26,South,180,0.0,1.0,82,0.00,,,0.00,TxWx,2013-04-23 09:25:00,
2013-04-23 05:30:00,25.0,19.0,30.26,SSE,157,1.0,1.0,83,0.00,,,0.00,TxWx,2013-04-23 09:30:00,
2013-04-23 05:35:00,25.0,19.0,30.26,SSW,202,1.0,1.0,83,0.00,,,0.00,TxWx,2013-04-23 09:35:00,
2013-04-23 05:40:00,24.0,19.0,30.26,South,180,1.0,1.0,83,0.00,,,0.00,TxWx,2013-04-23 09:40:00,
2013-04-23 05:45:00,25.0,20.0,30.26,South,180,1.0,1.0,84,0.00,,,0.00,TxWx,2013-04-23 09:45:00,
2013-04-23 05:57:00,25.0,20.0,30.26,South,180,0.0,0.0,84,0.00,,,0.00,TxWx,2013-04-23 09:57:00,
2013-04-23 06:02:00,25.0,20.0,30.26,SSE,157,1.0,1.0,84,0.00,,,0.00,TxWx,2013-04-23 10:02:00,
2013-04-23 06:07:00,25.0,20.0,30.26,South,180,1.0,1.0,85,0.00,,,0.00,TxWx,2013-04-23 10:07:00,
2013-04-23 06:13:00,25.0,20.0,30.26,South,180,1.0,1.0,85,0.00,,,0.00,TxWx,2013-04-23 10:13:00,
2013-04-23 06:18:00,24.0,19.0,30.26,South,180,1.0,2.0,85,0.00,,,0.00,TxWx,2013-04-23 10:18:00,
2013-04-23 06:23:00,24.0,19.0,30.26,SSE,157,1.0,1.0,85,0.00,,,0.00,TxWx,2013-04-23 10:23:00,
2013-04-23 06:28:00,24.0,19.0,30.26,WSW,247,1.0,2.0,86,0.00,,,0.00,TxWx,2013-04-23 10:28:00,
2013-04-23 06:33:00,25.0,21.0,30.26,South,180,1.0,1.0,87,0.00,,,0.00,TxWx,2013-04-23 10:33:00,
2013-04-23 06:38:00,25.0,21.0,30.26,ESE,112,2.0,3.0,87,0.00,,,0.00,TxWx,2013-04-23 10:38:00,
2013-04-23 06:43:00,25.0,21.0,30.26,SSE,157,0.0,1.0,87,0.00,,,0.00,TxWx,2013-04-23 10:43:00,
2013-04-23 06:48:00,26.0,22.0,30.26,SSW,202,0.0,0.0,88,0.00,,,0.00,TxWx,2013-04-23 10:48:00,
2013-04-23 06:53:00,26.0,22.0,30.26,SSW,202,0.0,0.0,88,0.00,,,0.00,TxWx,2013-04-23 10:53:00,
2013-04-23 06:58:00,27.0,23.0,30.26,South,180,0.0,0.0,88,0.00,,,0.00,TxWx,2013-04-23 10:58:00,
2013-04-23 07:04:00,27.0,23.0,30.26,SSW,202,1.0,1.0,88,0.00,,,0.00,TxWx,2013-04-23 11:04:00,
2013-04-23 07:09:00,27.0,23.0,30.26,ESE,112,3.0,4.0,88,0.00,,,0.00,TxWx,2013-04-23 11:09:00,
2013-04-23 07:14:00,28.0,24.0,30.25,ESE,112,3.0,3.0,88,0.00,,,0.00,TxWx,2013-04-23 11:14:00,
2013-04-23 07:19:00,28.0,24.0,30.26,SE,135,2.0,2.0,88,0.00,,,0.00,TxWx,2013-04-23 11:19:00,
2013-04-23 07:24:00,29.0,25.0,30.25,SE,135,2.0,3.0,88,0.00,,,0.00,TxWx,2013-04-23 11:24:00,
2013-04-23 07:29:00,29.0,25.0,30.25,SSW,202,1.0,1.0,87,0.00,,,0.00,TxWx,2013-04-23 11:29:00,
2013-04-23 07:34:00,30.0,26.0,30.25,NW,315,2.0,3.0,87,0.00,,,0.00,TxWx,2013-04-23 11:34:00,
2013-04-23 07:39:00,30.0,26.0,30.25,ESE,112,3.0,3.0,87,0.00,,,0.00,TxWx,2013-04-23 11:39:00,
2013-04-23 07:44:00,31.0,26.0,30.25,SE,135,1.0,1.0,87,0.00,,,0.00,TxWx,2013-04-23 11:44:00,
2013-04-23 07:49:00,32.0,27.0,30.25,SE,135,4.0,4.0,85,0.00,,,0.00,TxWx,2013-04-23 11:49:00,
2013-04-23 07:54:00,32.0,26.0,30.25,SE,135,3.0,3.0,83,0.00,,,0.00,TxWx,2013-04-23 11:54:00,
2013-04-23 08:00:00,32.0,26.0,30.25,East,90,4.0,4.0,82,0.00,,,0.00,TxWx,2013-04-23 12:00:00,
2013-04-23 08:05:00,32.0,25.0,30.25,ENE,67,2.0,4.0,80,0.00,,,0.00,TxWx,2013-04-23 12:05:00,
2013-04-23 08:10:00,33.0,26.0,30.24,South,180,2.0,4.0,79,0.00,,,0.00,TxWx,2013-04-23 12:10:00,
2013-04-23 08:15:00,34.0,27.0,30.24,ESE,112,4.0,4.0,79,0.00,,,0.00,TxWx,2013-04-23 12:15:00,
2013-04-23 08:20:00,34.0,26.0,30.24,West,270,3.0,4.0,76,0.00,,,0.00,TxWx,2013-04-23 12:20:00,
2013-04-23 08:25:00,34.0,26.0,30.24,SE,135,4.0,5.0,75,0.00,,,0.00,TxWx,2013-04-23 12:25:00,
2013-04-23 08:30:00,35.0,26.0,30.23,SE,135,3.0,4.0,74,0.00,,,0.00,TxWx,2013-04-23 12:30:00,
2013-04-23 08:35:00,35.0,25.0,30.24,East,90,6.0,6.0,71,0.00,,,0.00,TxWx,2013-04-23 12:35:00,
2013-04-23 08:40:00,35.0,25.0,30.23,SSE,157,4.0,4.0,70,0.00,,,0.00,TxWx,2013-04-23 12:40:00,
2013-04-23 08:46:00,35.0,25.0,30.23,NNE,22,3.0,3.0,69,0.00,,,0.00,TxWx,2013-04-23 12:46:00,
2013-04-23 08:51:00,36.0,25.0,30.23,North,0,3.0,5.0,68,0.00,,,0.00,TxWx,2013-04-23 12:51:00,
2013-04-23 08:56:00,36.0,25.0,30.23,SE,135,5.0,6.0,68,0.00,,,0.00,TxWx,2013-04-23 12:56:00,
2013-04-23 09:01:00,36.0,24.0,30.22,SE,135,3.0,6.0,65,0.00,,,0.00,TxWx,2013-04-23 13:01:00,
2013-04-23 09:06:00,37.0,25.0,30.22,SSE,157,1.0,2.0,65,0.00,,,0.00,TxWx,2013-04-23 13:06:00,
2013-04-23 09:11:00,37.0,25.0,30.22,East,90,3.0,5.0,64,0.00,,,0.00,TxWx,2013-04-23 13:11:00,
2013-04-23 09:16:00,37.0,24.0,30.22,East,90,5.0,7.0,62,0.00,,,0.00,TxWx,2013-04-23 13:16:00,
2013-04-23 09:21:00,37.0,24.0,30.22,ENE,67,6.0,7.0,61,0.00,,,0.00,TxWx,2013-04-23 13:21:00,
2013-04-23 09:26:00,37.0,23.0,30.22,NE,45,3.0,4.0,59,0.00,,,0.00,TxWx,2013-04-23 13:26:00,
2013-04-23 09:31:00,38.0,24.0,30.22,ENE,67,6.0,9.0,58,0.00,,,0.00,TxWx,2013-04-23 13:31:00,
2013-04-23 09:37:00,38.0,24.0,30.21,East,90,5.0,5.0,58,0.00,,,0.00,TxWx,2013-04-23 13:37:00,
2013-04-23 09:42:00,38.0,23.0,30.21,ESE,112,5.0,6.0,57,0.00,,,0.00,TxWx,2013-04-23 13:42:00,
2013-04-23 09:47:00,39.0,24.0,30.21,ENE,67,3.0,5.0,57,0.00,,,0.00,TxWx,2013-04-23 13:47:00,
2013-04-23 09:52:00,39.0,24.0,30.20,NE,45,5.0,6.0,57,0.00,,,0.00,TxWx,2013-04-23 13:52:00,
2013-04-23 09:57:00,39.0,23.0,30.20,SSE,157,3.0,5.0,56,0.00,,,0.00,TxWx,2013-04-23 13:57:00,
2013-04-23 10:02:00,40.0,24.0,30.20,ESE,112,5.0,6.0,55,0.00,,,0.00,TxWx,2013-04-23 14:02:00,
2013-04-23 10:07:00,40.0,23.0,30.20,East,90,5.0,5.0,54,0.00,,,0.00,TxWx,2013-04-23 14:07:00,
2013-04-23 10:12:00,40.0,23.0,30.20,ESE,112,5.0,6.0,52,0.00,,,0.00,TxWx,2013-04-23 14:12:00,
2013-04-23 10:17:00,41.0,23.0,30.19,ESE,112,6.0,7.0,51,0.00,,,0.00,TxWx,2013-04-23 14:17:00,
2013-04-23 10:22:00,41.0,23.0,30.19,East,90,5.0,8.0,50,0.00,,,0.00,TxWx,2013-04-23 14:22:00,
2013-04-23 10:28:00,41.0,22.0,30.19,South,180,2.0,4.0,49,0.00,,,0.00,TxWx,2013-04-23 14:28:00,
2013-04-23 10:33:00,41.0,22.0,30.19,ESE,112,4.0,6.0,48,0.00,,,0.00,TxWx,2013-04-23 14:33:00,
2013-04-23 10:38:00,41.0,22.0,30.18,SE,135,4.0,6.0,48,0.00,,,0.00,TxWx,2013-04-23 14:38:00,
2013-04-23 10:43:00,42.0,22.0,30.18,SSW,202,3.0,3.0,47,0.00,,,0.00,TxWx,2013-04-23 14:43:00,
2013-04-23 10:48:00,42.0,21.0,30.18,East,90,6.0,8.0,46,0.00,,,0.00,TxWx,2013-04-23 14:48:00,
2013-04-23 10:53:00,42.0,21.0,30.18,ESE,112,6.0,9.0,46,0.00,,,0.00,TxWx,2013-04-23 14:53:00,
2013-04-23 10:58:00,42.0,21.0,30.18,ESE,112,5.0,6.0,46,0.00,,,0.00,TxWx,2013-04-23 14:58:00,
2013-04-23 11:03:00,43.0,22.0,30.18,East,90,8.0,8.0,46,0.00,,,0.00,TxWx,2013-04-23 15:03:00,
2013-04-23 11:08:00,43.0,22.0,30.17,ESE,112,6.0,7.0,45,0.00,,,0.00,TxWx,2013-04-23 15:08:00,
2013-04-23 11:13:00,43.0,22.0,30.17,ESE,112,3.0,5.0,45,0.00,,,0.00,TxWx,2013-04-23 15:13:00,
2013-04-23 11:19:00,44.0,23.0,30.17,ESE,112,5.0,6.0,45,0.00,,,0.00,TxWx,2013-04-23 15:19:00,
2013-04-23 11:24:00,44.0,22.0,30.17,ESE,112,8.0,8.0,44,0.00,,,0.00,TxWx,2013-04-23 15:24:00,
2013-04-23 11:29:00,44.0,22.0,30.16,ESE,112,5.0,7.0,44,0.00,,,0.00,TxWx,2013-04-23 15:29:00,
2013-04-23 11:34:00,44.0,22.0,30.16,ESE,112,5.0,5.0,44,0.00,,,0.00,TxWx,2013-04-23 15:34:00,
2013-04-23 11:39:00,44.0,22.0,30.16,SSE,157,3.0,8.0,43,0.00,,,0.00,TxWx,2013-04-23 15:39:00,
2013-04-23 11:44:00,45.0,23.0,30.16,South,180,5.0,8.0,43,0.00,,,0.00,TxWx,2013-04-23 15:44:00,
2013-04-23 11:49:00,45.0,23.0,30.15,ENE,67,4.0,5.0,43,0.00,,,0.00,TxWx,2013-04-23 15:49:00,
2013-04-23 11:54:00,45.0,23.0,30.15,SSE,157,3.0,5.0,43,0.00,,,0.00,TxWx,2013-04-23 15:54:00,
2013-04-23 11:59:00,45.0,23.0,30.15,ESE,112,7.0,8.0,43,0.00,,,0.00,TxWx,2013-04-23 15:59:00,
2013-04-23 12:04:00,45.0,22.0,30.15,SSW,202,5.0,5.0,42,0.00,,,0.00,TxWx,2013-04-23 16:04:00,
2013-04-23 12:10:00,45.0,20.0,30.15,ESE,112,5.0,10.0,39,0.00,,,0.00,TxWx,2013-04-23 16:10:00,
2013-04-23 12:15:00,46.0,22.0,30.15,ESE,112,10.0,11.0,40,0.00,,,0.00,TxWx,2013-04-23 16:15:00,
2013-04-23 12:20:00,45.0,20.0,30.14,East,90,7.0,9.0,38,0.00,,,0.00,TxWx,2013-04-23 16:20:00,
2013-04-23 12:25:00,45.0,20.0,30.14,SE,135,9.0,9.0,39,0.00,,,0.00,TxWx,2013-04-23 16:25:00,
2013-04-23 12:30:00,46.0,22.0,30.14,South,180,6.0,9.0,40,0.00,,,0.00,TxWx,2013-04-23 16:30:00,
2013-04-23 12:35:00,46.0,21.0,30.14,ESE,112,6.0,10.0,39,0.00,,,0.00,TxWx,2013-04-23 16:35:00,
2013-04-23 12:40:00,46.0,21.0,30.13,SE,135,8.0,8.0,39,0.00,,,0.00,TxWx,2013-04-23 16:40:00,
2013-04-23 12:45:00,47.0,22.0,30.13,ESE,112,5.0,5.0,38,0.00,,,0.00,TxWx,2013-04-23 16:45:00,
2013-04-23 12:50:00,47.0,22.0,30.13,ESE,112,3.0,4.0,39,0.00,,,0.00,TxWx,2013-04-23 16:50:00,
2013-04-23 12:56:00,48.0,23.0,30.13,SE,135,3.0,3.0,39,0.00,,,0.00,TxWx,2013-04-23 16:56:00,
2013-04-23 13:01:00,48.0,22.0,30.12,SW,225,8.0,8.0,38,0.00,,,0.00,TxWx,2013-04-23 17:01:00,
2013-04-23 13:06:00,48.0,22.0,30.12,SE,135,8.0,8.0,37,0.00,,,0.00,TxWx,2013-04-23 17:06:00,
2013-04-23 13:11:00,48.0,22.0,30.12,ESE,112,5.0,6.0,38,0.00,,,0.00,TxWx,2013-04-23 17:11:00,
2013-04-23 13:16:00,48.0,23.0,30.11,ESE,112,6.0,6.0,38,0.00,,,0.00,TxWx,2013-04-23 17:16:00,
2013-04-23 13:21:00,48.0,22.0,30.11,NNW,337,6.0,8.0,37,0.00,,,0.00,TxWx,2013-04-23 17:21:00,
2013-04-23 13:26:00,49.0,22.0,30.11,ESE,112,8.0,11.0,36,0.00,,,0.00,TxWx,2013-04-23 17:26:00,
2013-04-23 13:31:00,49.0,22.0,30.11,SW,225,11.0,11.0,36,0.00,,,0.00,TxWx,2013-04-23 17:31:00,
2013-04-23 13:36:00,49.0,22.0,30.11,North,0,4.0,5.0,36,0.00,,,0.00,TxWx,2013-04-23 17:36:00,
2013-04-23 13:41:00,50.0,23.0,30.10,ENE,67,6.0,8.0,36,0.00,,,0.00,TxWx,2013-04-23 17:41:00,
2013-04-23 13:47:00,50.0,23.0,30.10,East,90,5.0,7.0,36,0.00,,,0.00,TxWx,2013-04-23 17:47:00,
2013-04-23 13:52:00,50.0,23.0,30.10,ESE,112,10.0,10.0,37,0.00,,,0.00,TxWx,2013-04-23 17:52:00,
2013-04-23 13:57:00,49.0,23.0,30.09,NE,45,4.0,4.0,37,0.00,,,0.00,TxWx,2013-04-23 17:57:00,
2013-04-23 14:02:00,49.0,23.0,30.09,NNE,22,3.0,4.0,38,0.00,,,0.00,TxWx,2013-04-23 18:02:00,
2013-04-23 14:07:00,50.0,24.0,30.09,SW,225,12.0,12.0,38,0.00,,,0.00,TxWx,2013-04-23 18:07:00,
2013-04-23 14:12:00,50.0,25.0,30.09,SSE,157,10.0,13.0,39,0.00,,,0.00,TxWx,2013-04-23 18:12:00,
2013-04-23 14:17:00,50.0,26.0,30.09,SSE,157,10.0,11.0,41,0.00,,,0.00,TxWx,2013-04-23 18:17:00,
2013-04-23 14:22:00,51.0,27.0,30.09,SSE,157,3.0,5.0,41,0.00,,,0.00,TxWx,2013-04-23 18:22:00,
2013-04-23 14:27:00,51.0,28.0,30.08,WSW,247,4.0,6.0,42,0.00,,,0.00,TxWx,2013-04-23 18:27:00,
2013-04-23 14:30:00,37.0,33.0,29.96,SSE,157,1.0,2.0,86,0.00,,,0.00,TxWx,2013-04-23 18:30:00,
2013-04-23 14:32:00,37.0,33.0,29.96,SE,135,2.0,3.0,86,0.00,,,0.00,TxWx,2013-04-23 18:32:00,
2013-04-23 14:33:00,51.0,28.0,30.08,ESE,112,6.0,7.0,43,0.00,,,0.00,TxWx,2013-04-23 18:33:00,
2013-04-23 14:34:00,37.0,33.0,29.96,SSE,157,1.0,2.0,87,0.00,,,0.00,TxWx,2013-04-23 18:34:00,
2013-04-23 14:35:00,37.0,33.0,29.96,SE,135,1.0,2.0,87,0.00,,,0.00,TxWx,2013-04-23 18:35:00,
2013-04-23 14:38:00,52.0,29.0,30.08,ESE,112,9.0,9.0,43,0.00,,,0.00,TxWx,2013-04-23 18:38:00,
2013-04-23 14:43:00,51.0,29.0,30.08,SSW,202,5.0,5.0,44,0.00,,,0.00,TxWx,2013-04-23 18:43:00,
2013-04-23 14:45:00,37.0,33.0,29.96,ESE,112,5.0,5.0,87,0.00,,,0.00,TxWx,2013-04-23 18:45:00,
2013-04-23 14:48:00,51.0,29.0,30.07,SE,135,8.0,9.0,44,0.00,,,0.00,TxWx,2013-04-23 18:48:00,
2013-04-23 14:53:00,51.0,29.0,30.07,West,270,2.0,3.0,45,0.00,,,0.00,TxWx,2013-04-23 18:53:00,
2013-04-23 14:58:00,52.0,32.0,30.07,SSW,202,2.0,4.0,47,0.00,,,0.00,TxWx,2013-04-23 18:58:00,
2013-04-23 15:01:00,37.0,34.0,29.95,ESE,112,4.0,5.0,88,0.00,,,0.00,TxWx,2013-04-23 19:01:00,
2013-04-23 15:02:00,37.0,34.0,29.95,SE,135,2.0,3.0,88,0.00,,,0.00,TxWx,2013-04-23 19:02:00,
2013-04-23 15:03:00,52.0,31.0,30.07,ESE,112,6.0,6.0,46,0.00,,,0.00,TxWx,2013-04-23 19:03:00,
2013-04-23 15:04:00,37.0,34.0,29.95,SE,135,3.0,4.0,88,0.00,,,0.00,TxWx,2013-04-23 19:04:00,
2013-04-23 15:08:00,52.0,32.0,30.06,WNW,292,5.0,5.0,47,0.00,,,0.00,TxWx,2013-04-23 19:08:00,
2013-04-23 15:13:00,52.0,32.0,30.07,SSW,202,12.0,12.0,47,0.00,,,0.00,TxWx,2013-04-23 19:13:00,
2013-04-23 15:18:00,52.0,32.0,30.06,South,180,6.0,8.0,47,0.00,,,0.00,TxWx,2013-04-23 19:18:00,
2013-04-23 15:24:00,52.0,33.0,30.06,ESE,112,5.0,6.0,48,0.00,,,0.00,TxWx,2013-04-23 19:24:00,
2013-04-23 15:29:00,52.0,33.0,30.06,SSE,157,7.0,8.0,48,0.00,,,0.00,TxWx,2013-04-23 19:29:00,
2013-04-23 15:34:00,51.0,32.0,30.06,South,180,2.0,3.0,49,0.00,,,0.00,TxWx,2013-04-23 19:34:00,
2013-04-23 15:39:00,51.0,33.0,30.05,SSE,157,8.0,10.0,50,0.00,,,0.00,TxWx,2013-04-23 19:39:00,
2013-04-23 15:44:00,52.0,34.0,30.05,SSW,202,9.0,9.0,50,0.00,,,0.00,TxWx,2013-04-23 19:44:00,
2013-04-23 15:49:00,52.0,34.0,30.05,SE,135,5.0,5.0,50,0.00,,,0.00,TxWx,2013-04-23 19:49:00,
2013-04-23 15:54:00,52.0,34.0,30.05,East,90,8.0,10.0,50,0.00,,,0.00,TxWx,2013-04-23 19:54:00,
2013-04-23 15:59:00,52.0,34.0,30.05,ESE,112,10.0,10.0,51,0.00,,,0.00,TxWx,2013-04-23 19:59:00,
2013-04-23 16:04:00,52.0,34.0,30.05,South,180,5.0,6.0,50,0.00,,,0.00,TxWx,2013-04-23 20:04:00,
2013-04-23 16:09:00,52.0,34.0,30.05,South,180,6.0,10.0,50,0.00,,,0.00,TxWx,2013-04-23 20:09:00,
2013-04-23 16:15:00,52.0,34.0,30.05,South,180,5.0,6.0,51,0.00,,,0.00,TxWx,2013-04-23 20:15:00,
2013-04-23 16:20:00,52.0,34.0,30.05,ESE,112,10.0,10.0,50,0.00,,,0.00,TxWx,2013-04-23 20:20:00,
2013-04-23 16:25:00,52.0,34.0,30.05,SSE,157,5.0,5.0,51,0.00,,,0.00,TxWx,2013-04-23 20:25:00,
2013-04-23 16:30:00,52.0,34.0,30.04,ESE,112,12.0,12.0,51,0.00,,,0.00,TxWx,2013-04-23 20:30:00,
2013-04-23 16:35:00,52.0,34.0,30.04,SE,135,5.0,7.0,51,0.00,,,0.00,TxWx,2013-04-23 20:35:00,
2013-04-23 16:40:00,52.0,34.0,30.04,SSE,157,6.0,7.0,51,0.00,,,0.00,TxWx,2013-04-23 20:40:00,
2013-04-23 16:45:00,51.0,34.0,30.04,West,270,5.0,7.0,52,0.00,,,0.00,TxWx,2013-04-23 20:45:00,
2013-04-23 16:50:00,51.0,34.0,30.05,ESE,112,4.0,5.0,53,0.00,,,0.00,TxWx,2013-04-23 20:50:00,
2013-04-23 16:55:00,51.0,34.0,30.05,SSW,202,2.0,3.0,53,0.00,,,0.00,TxWx,2013-04-23 20:55:00,
2013-04-23 17:00:00,51.0,34.0,30.05,South,180,2.0,3.0,53,0.00,,,0.00,TxWx,2013-04-23 21:00:00,
2013-04-23 17:06:00,50.0,34.0,30.05,SSW,202,3.0,6.0,54,0.00,,,0.00,TxWx,2013-04-23 21:06:00,
2013-04-23 17:11:00,50.0,34.0,30.05,SE,135,9.0,10.0,55,0.00,,,0.00,TxWx,2013-04-23 21:11:00,
2013-04-23 17:16:00,50.0,34.0,30.04,SE,135,3.0,4.0,55,0.00,,,0.00,TxWx,2013-04-23 21:16:00,
2013-04-23 17:21:00,50.0,35.0,30.03,SE,135,8.0,9.0,56,0.00,,,0.00,TxWx,2013-04-23 21:21:00,
2013-04-23 17:26:00,50.0,35.0,30.03,West,270,2.0,3.0,56,0.00,,,0.00,TxWx,2013-04-23 21:26:00,
2013-04-23 17:31:00,50.0,35.0,30.03,SSE,157,5.0,5.0,56,0.00,,,0.00,TxWx,2013-04-23 21:31:00,
2013-04-23 17:36:00,49.0,34.0,30.03,SE,135,6.0,9.0,57,0.00,,,0.00,TxWx,2013-04-23 21:36:00,
2013-04-23 17:41:00,49.0,35.0,30.02,ESE,112,8.0,10.0,59,0.00,,,0.00,TxWx,2013-04-23 21:41:00,
2013-04-23 17:46:00,49.0,35.0,30.03,SE,135,8.0,10.0,59,0.00,,,0.00,TxWx,2013-04-23 21:46:00,
2013-04-23 17:51:00,49.0,35.0,30.03,ESE,112,3.0,5.0,60,0.00,,,0.00,TxWx,2013-04-23 21:51:00,
2013-04-23 17:53:00,30.0,27.0,29.89,South,180,1.0,1.0,92,0.00,,,0.00,TxWx,2013-04-23 21:53:00,
2013-04-23 17:54:00,30.0,27.0,29.89,South,180,1.0,1.0,92,0.00,,,0.00,TxWx,2013-04-23 21:54:00,
2013-04-23 17:55:00,30.0,27.0,29.89,SSE,157,1.0,1.0,92,0.00,,,0.00,TxWx,2013-04-23 21:55:00,
2013-04-23 17:56:00,30.0,27.0,29.89,SE,135,1.0,1.0,92,0.00,,,0.00,TxWx,2013-04-23 21:56:00,
2013-04-23 17:57:00,49.0,35.0,30.03,South,180,3.0,5.0,59,0.00,,,0.00,TxWx,2013-04-23 21:57:00,
2013-04-23 18:02:00,49.0,35.0,30.02,ESE,112,6.0,6.0,60,0.00,,,0.00,TxWx,2013-04-23 22:02:00,
2013-04-23 18:07:00,49.0,36.0,30.02,SSW,202,3.0,4.0,61,0.00,,,0.00,TxWx,2013-04-23 22:07:00,
2013-04-23 18:12:00,48.0,35.0,30.02,SE,135,4.0,6.0,62,0.00,,,0.00,TxWx,2013-04-23 22:12:00,
2013-04-23 18:17:00,48.0,36.0,30.02,ESE,112,5.0,5.0,62,0.00,,,0.00,TxWx,2013-04-23 22:17:00,
2013-04-23 18:22:00,48.0,36.0,30.02,WSW,247,2.0,3.0,63,0.00,,,0.00,TxWx,2013-04-23 22:22:00,
2013-04-23 18:27:00,48.0,36.0,30.02,ESE,112,13.0,13.0,63,0.00,,,0.00,TxWx,2013-04-23 22:27:00,
2013-04-23 18:32:00,47.0,35.0,30.02,SE,135,3.0,3.0,64,0.00,,,0.00,TxWx,2013-04-23 22:32:00,
2013-04-23 18:37:00,47.0,36.0,30.02,SE,135,6.0,9.0,65,0.00,,,0.00,TxWx,2013-04-23 22:37:00,
2013-04-23 18:42:00,47.0,36.0,30.03,ESE,112,5.0,6.0,66,0.00,,,0.00,TxWx,2013-04-23 22:42:00,
2013-04-23 18:47:00,46.0,35.0,30.03,ENE,67,3.0,3.0,66,0.00,,,0.00,TxWx,2013-04-23 22:47:00,
2013-04-23 18:53:00,46.0,35.0,30.03,ENE,67,3.0,4.0,67,0.00,,,0.00,TxWx,2013-04-23 22:53:00,
2013-04-23 18:58:00,46.0,36.0,30.04,SE,135,6.0,8.0,67,0.00,,,0.00,TxWx,2013-04-23 22:58:00,
2013-04-23 19:03:00,46.0,36.0,30.03,SE,135,5.0,5.0,68,0.00,,,0.00,TxWx,2013-04-23 23:03:00,
2013-04-23 19:08:00,46.0,36.0,30.04,SE,135,6.0,6.0,68,0.00,,,0.00,TxWx,2013-04-23 23:08:00,
2013-04-23 19:13:00,46.0,36.0,30.04,ESE,112,3.0,3.0,68,0.00,,,0.00,TxWx,2013-04-23 23:13:00,
2013-04-23 19:18:00,46.0,36.0,30.04,SE,135,4.0,4.0,68,0.00,,,0.00,TxWx,2013-04-23 23:18:00,
2013-04-23 19:23:00,46.0,36.0,30.04,ENE,67,4.0,5.0,68,0.00,,,0.00,TxWx,2013-04-23 23:23:00,
2013-04-23 19:28:00,46.0,36.0,30.04,SE,135,1.0,1.0,68,0.00,,,0.00,TxWx,2013-04-23 23:28:00,
2013-04-23 19:33:00,46.0,36.0,30.03,ESE,112,5.0,6.0,69,0.00,,,0.00,TxWx,2013-04-23 23:33:00,
2013-04-23 19:38:00,45.0,35.0,30.03,SE,135,4.0,6.0,69,0.00,,,0.00,TxWx,2013-04-23 23:38:00,
2013-04-23 19:44:00,45.0,35.0,30.02,ESE,112,4.0,4.0,69,0.00,,,0.00,TxWx,2013-04-23 23:44:00,
2013-04-23 19:49:00,45.0,35.0,30.01,ESE,112,6.0,7.0,69,0.00,,,0.00,TxWx,2013-04-23 23:49:00,
2013-04-23 19:54:00,45.0,36.0,30.01,ESE,112,5.0,6.0,70,0.00,,,0.00,TxWx,2013-04-23 23:54:00,
2013-04-23 19:59:00,44.0,35.0,30.01,ESE,112,3.0,4.0,71,0.00,,,0.00,TxWx,2013-04-23 23:59:00,
2013-04-23 20:04:00,44.0,35.0,30.01,ESE,112,3.0,5.0,71,0.00,,,0.00,TxWx,2013-04-24 00:04:00,
2013-04-23 20:09:00,44.0,35.0,30.01,SE,135,3.0,6.0,72,0.00,,,0.00,TxWx,2013-04-24 00:09:00,
2013-04-23 20:14:00,43.0,35.0,30.01,ESE,112,4.0,5.0,72,0.00,,,0.00,TxWx,2013-04-24 00:14:00,
2013-04-23 20:19:00,43.0,35.0,30.00,SE,135,3.0,3.0,74,0.00,,,0.00,TxWx,2013-04-24 00:19:00,
2013-04-23 20:24:00,43.0,35.0,30.00,South,180,3.0,5.0,74,0.00,,,0.00,TxWx,2013-04-24 00:24:00,
2013-04-23 20:29:00,43.0,35.0,30.00,ESE,112,5.0,6.0,74,0.00,,,0.00,TxWx,2013-04-24 00:29:00,
2013-04-23 20:35:00,43.0,35.0,30.00,East,90,5.0,5.0,74,0.00,,,0.00,TxWx,2013-04-24 00:35:00,
2013-04-23 20:40:00,42.0,34.0,30.00,South,180,1.0,2.0,74,0.00,,,0.00,TxWx,2013-04-24 00:40:00,
2013-04-23 20:45:00,42.0,34.0,30.00,SSW,202,0.0,0.0,74,0.00,,,0.00,TxWx,2013-04-24 00:45:00,
2013-04-23 20:50:00,42.0,34.0,30.00,South,180,1.0,1.0,73,0.00,,,0.00,TxWx,2013-04-24 00:50:00,
2013-04-23 20:55:00,41.0,33.0,30.00,South,180,0.0,1.0,74,0.00,,,0.00,TxWx,2013-04-24 00:55:00,
2013-04-23 21:00:00,41.0,33.0,30.00,South,180,0.0,1.0,74,0.00,,,0.00,TxWx,2013-04-24 01:00:00,
2013-04-23 21:05:00,41.0,34.0,30.00,SSE,157,1.0,1.0,75,0.00,,,0.00,TxWx,2013-04-24 01:05:00,
2013-04-23 21:10:00,41.0,34.0,30.01,SE,135,2.0,3.0,75,0.00,,,0.00,TxWx,2013-04-24 01:10:00,
2013-04-23 21:15:00,41.0,34.0,30.01,ESE,112,1.0,1.0,76,0.00,,,0.00,TxWx,2013-04-24 01:15:00,
2013-04-23 21:20:00,41.0,34.0,30.01,SE,135,0.0,1.0,76,0.00,,,0.00,TxWx,2013-04-24 01:20:00,
2013-04-23 21:25:00,41.0,34.0,30.01,SE,135,1.0,2.0,76,0.00,,,0.00,TxWx,2013-04-24 01:25:00,
2013-04-23 21:31:00,40.0,33.0,30.00,ESE,112,2.0,2.0,76,0.00,,,0.00,TxWx,2013-04-24 01:31:00,
2013-04-23 21:36:00,40.0,33.0,30.00,South,180,1.0,1.0,77,0.00,,,0.00,TxWx,2013-04-24 01:36:00,
2013-04-23 21:41:00,39.0,32.0,30.00,SSW,202,0.0,1.0,77,0.00,,,0.00,TxWx,2013-04-24 01:41:00,
2013-04-23 21:46:00,38.0,30.0,30.00,South,180,0.0,1.0,77,0.00,,,0.00,TxWx,2013-04-24 01:46:00,
2013-04-23 21:51:00,38.0,31.0,30.00,South,180,1.0,1.0,78,0.00,,,0.00,TxWx,2013-04-24 01:51:00,
2013-04-23 21:56:00,38.0,31.0,30.00,SSW,202,0.0,0.0,79,0.00,,,0.00,TxWx,2013-04-24 01:56:00,
2013-04-23 22:01:00,38.0,32.0,29.99,SSW,202,0.0,0.0,79,0.00,,,0.00,TxWx,2013-04-24 02:01:00,
2013-04-23 22:06:00,38.0,32.0,29.99,SSW,202,0.0,0.0,79,0.00,,,0.00,TxWx,2013-04-24 02:06:00,
2013-04-23 22:11:00,37.0,30.0,29.99,South,180,1.0,1.0,80,0.00,,,0.00,TxWx,2013-04-24 02:11:00,
2013-04-23 22:16:00,37.0,30.0,29.99,SSW,202,0.0,0.0,80,0.00,,,0.00,TxWx,2013-04-24 02:16:00,
2013-04-23 22:22:00,37.0,30.0,29.98,SSE,157,1.0,1.0,80,0.00,,,0.00,TxWx,2013-04-24 02:22:00,
2013-04-23 22:27:00,37.0,31.0,29.99,SE,135,1.0,1.0,81,0.00,,,0.00,TxWx,2013-04-24 02:27:00,
2013-04-23 22:32:00,37.0,31.0,29.98,SE,135,1.0,2.0,81,0.00,,,0.00,TxWx,2013-04-24 02:32:00,
2013-04-23 22:37:00,36.0,30.0,29.98,SSW,202,0.0,0.0,81,0.00,,,0.00,TxWx,2013-04-24 02:37:00,
2013-04-23 22:42:00,36.0,30.0,29.98,ESE,112,1.0,2.0,82,0.00,,,0.00,TxWx,2013-04-24 02:42:00,
2013-04-23 22:47:00,35.0,29.0,29.98,NNE,22,2.0,2.0,82,0.00,,,0.00,TxWx,2013-04-24 02:47:00,
2013-04-23 22:52:00,35.0,29.0,29.98,South,180,1.0,1.0,83,0.00,,,0.00,TxWx,2013-04-24 02:52:00,
2013-04-23 22:57:00,35.0,29.0,29.98,SW,225,1.0,1.0,83,0.00,,,0.00,TxWx,2013-04-24 02:57:00,
2013-04-23 23:02:00,35.0,30.0,29.98,SSW,202,0.0,0.0,84,0.00,,,0.00,TxWx,2013-04-24 03:02:00,
2013-04-23 23:07:00,36.0,31.0,29.98,ENE,67,3.0,3.0,84,0.00,,,0.00,TxWx,2013-04-24 03:07:00,
2013-04-23 23:12:00,36.0,31.0,29.97,SSW,202,0.0,0.0,85,0.00,,,0.00,TxWx,2013-04-24 03:12:00,
2013-04-23 23:18:00,36.0,31.0,29.96,ESE,112,2.0,3.0,85,0.00,,,0.00,TxWx,2013-04-24 03:18:00,
2013-04-23 23:23:00,36.0,32.0,29.96,West,270,1.0,1.0,86,0.00,,,0.00,TxWx,2013-04-24 03:23:00,
2013-04-23 23:28:00,37.0,33.0,29.96,SSE,157,1.0,2.0,86,0.00,,,0.00,TxWx,2013-04-24 03:28:00,
2013-04-23 23:35:00,37.0,33.0,29.96,SE,135,2.0,3.0,87,0.00,,,0.00,TxWx,2013-04-24 03:35:00,
2013-04-23 23:41:00,37.0,33.0,29.96,ESE,112,2.0,3.0,87,0.00,,,0.00,TxWx,2013-04-24 03:41:00,
2013-04-23 23:46:00,37.0,33.0,29.96,NW,315,1.0,2.0,87,0.00,,,0.00,TxWx,2013-04-24 03:46:00,
2013-04-23 23:51:00,37.0,33.0,29.95,SSE,157,1.0,1.0,87,0.00,,,0.00,TxWx,2013-04-24 03:51:00,
2013-04-23 23:56:00,37.0,34.0,29.95,ESE,112,3.0,4.0,88,0.00,,,0.00,TxWx,2013-04-24 03:56:00,